Time;durP1;ratioP1;P1;durP2;ratioP2;P2;SDS_P1;SDS_P2;PMS_P1;PMS_P2;Temp;Humidity;BMP_temperature;BMP_pressure;BME280_temperature;BME280_humidity;BME280_pressure;Samples;Min_cycle;Max_cycle;Signal;HPM_P1;HPM_P2
2024/04/18 00:00:12;;;;;;;;;;;;;;;9.47;nan;99397.16;4569916;25;19934;-71
2024/04/18 00:02:13;;;;;;;;;;;;;;;9.25;nan;99393.13;4577503;26;19935;-71
2024/04/18 00:04:14;;;;;;;;;;;;;;;8.64;nan;99392.84;4580250;26;20349;-70
2024/04/18 00:06:14;;;;;;;;;;;;;;;8.64;nan;99397.31;4576060;26;19938;-70
2024/04/18 00:08:17;;;;;;;;;;;;;;;9.04;nan;99390.75;4577534;26;19927;-70
2024/04/18 00:10:19;;;;;;;;;;;;;;;9.48;nan;99388.16;4580085;25;19928;-72
2024/04/18 00:12:19;;;;;;;;;;;;;;;9.64;nan;99391.94;4580280;26;19928;-72
2024/04/18 00:14:20;;;;;;;;;;;;;;;9.33;nan;99392.38;4570041;26;19960;-70
2024/04/18 00:16:21;;;;;;;;;;;;;;;9.57;nan;99391.75;4569531;26;19955;-70
2024/04/18 00:18:21;;;;;;;;;;;;;;;9.36;nan;99390.25;4569846;26;19934;-70
2024/04/18 00:20:22;;;;;;;;;;;;;;;9.24;nan;99394.13;4569926;25;20309;-70
2024/04/18 00:22:22;;;;;;;;;;;;;;;9.58;nan;99393.44;4569594;26;19959;-71
2024/04/18 00:24:22;;;;;;;;;;;;;;;9.26;nan;99399.31;4568413;26;20343;-71
2024/04/18 00:26:23;;;;;;;;;;;;;;;9.24;nan;99398.63;4569641;25;19927;-70
2024/04/18 00:28:23;;;;;;;;;;;;;;;9.28;nan;99389.31;4569987;26;19927;-70
2024/04/18 00:30:24;;;;;;;;;;;;;;;9.33;nan;99400.38;4569726;25;19995;-71
2024/04/18 00:32:24;;;;;;;;;;;;;;;9.16;nan;99394.88;4569118;26;19935;-70
2024/04/18 00:34:24;;;;;;;;;;;;;;;8.82;nan;99402.69;4570672;26;19927;-70
2024/04/18 00:36:26;;;;;;;;;;;;;;;8.84;nan;99398.88;4589876;26;19919;-72
2024/04/18 00:38:26;;;;;;;;;;;;;;;8.79;nan;99397.66;4580367;26;19928;-71
2024/04/18 00:40:26;;;;;;;;;;;;;;;9.03;nan;99397.91;4569306;25;19939;-71
2024/04/18 00:42:27;;;;;;;;;;;;;;;9.05;nan;99392.44;4568903;26;19956;-70
2024/04/18 00:44:27;;;;;;;;;;;;;;;9.15;nan;99398.56;4569705;26;19928;-70
2024/04/18 00:46:28;;;;;;;;;;;;;;;8.86;nan;99396.91;4569497;26;20352;-70
2024/04/18 00:48:29;;;;;;;;;;;;;;;8.96;nan;99393.34;4569769;26;19934;-70
2024/04/18 00:50:29;;;;;;;;;;;;;;;9.15;nan;99401.22;4569208;25;19976;-71
2024/04/18 00:52:29;;;;;;;;;;;;;;;9.03;nan;99389.91;4568648;26;19932;-71
2024/04/18 00:54:30;;;;;;;;;;;;;;;8.90;nan;99392.94;4568464;26;20003;-71
2024/04/18 00:56:30;;;;;;;;;;;;;;;8.94;nan;99395.31;4569191;26;20388;-72
2024/04/18 00:58:30;;;;;;;;;;;;;;;9.05;nan;99395.13;4568524;26;19934;-69
2024/04/18 01:00:31;;;;;;;;;;;;;;;9.14;nan;99391.53;4568698;25;20351;-70
2024/04/18 01:02:32;;;;;;;;;;;;;;;8.74;nan;99398.09;4567853;26;19986;-71
2024/04/18 01:04:32;;;;;;;;;;;;;;;8.77;nan;99397.81;4568745;26;20356;-70
2024/04/18 01:06:33;;;;;;;;;;;;;;;8.72;nan;99394.75;4569101;26;19939;-72
2024/04/18 01:08:33;;;;;;;;;;;;;;;8.85;nan;99399.72;4568786;26;20171;-69
2024/04/18 01:10:33;;;;;;;;;;;;;;;8.99;nan;99393.88;4569151;25;19939;-70
2024/04/18 01:12:34;;;;;;;;;;;;;;;8.81;nan;99407.16;4567827;26;19928;-70
2024/04/18 01:14:34;;;;;;;;;;;;;;;8.58;nan;99402.25;4568633;26;19934;-70
2024/04/18 01:16:35;;;;;;;;;;;;;;;8.70;nan;99405.56;4568659;26;19927;-71
2024/04/18 01:18:35;;;;;;;;;;;;;;;8.90;nan;99395.63;4568788;26;19935;-72
2024/04/18 01:20:35;;;;;;;;;;;;;;;8.76;nan;99406.78;4568608;25;19928;-70
2024/04/18 01:22:36;;;;;;;;;;;;;;;8.88;nan;99404.75;4567756;26;19935;-70
2024/04/18 01:24:36;;;;;;;;;;;;;;;8.98;nan;99391.34;4567610;26;19928;-69
2024/04/18 01:26:36;;;;;;;;;;;;;;;9.36;nan;99400.91;4535445;26;19928;-71
2024/04/18 01:28:37;;;;;;;;;;;;;;;9.56;nan;99394.56;4570464;26;19927;-70
2024/04/18 01:30:37;;;;;;;;;;;;;;;9.80;nan;99397.44;4572682;25;20344;-70
2024/04/18 01:32:38;;;;;;;;;;;;;;;9.66;nan;99405.97;4539040;26;20376;-71
2024/04/18 01:34:38;;;;;;;;;;;;;;;9.33;nan;99408.38;4569821;26;19939;-70
2024/04/18 01:36:38;;;;;;;;;;;;;;;9.66;nan;99405.97;4538004;26;19936;-70
2024/04/18 01:38:39;;;;;;;;;;;;;;;9.25;nan;99409.13;4536661;26;19936;-70
2024/04/18 01:40:39;;;;;;;;;;;;;;;9.54;nan;99410.72;4561629;25;19956;-71
2024/04/18 01:42:39;;;;;;;;;;;;;;;9.57;nan;99402.44;4567558;26;19928;-70
2024/04/18 01:44:40;;;;;;;;;;;;;;;9.23;nan;99408.44;4564559;26;19973;-71
2024/04/18 01:46:40;;;;;;;;;;;;;;;9.33;nan;99411.06;4538505;26;19935;-71
2024/04/18 01:48:41;;;;;;;;;;;;;;;9.34;nan;99412.72;4557625;25;19934;-70
2024/04/18 01:50:41;;;;;;;;;;;;;;;9.33;nan;99411.06;4555345;25;20311;-71
2024/04/18 01:52:42;;;;;;;;;;;;;;;9.40;nan;99417.44;4566805;26;20462;-72
2024/04/18 01:54:42;;;;;;;;;;;;;;;8.81;nan;99425.81;4567929;26;20423;-72
2024/04/18 01:56:42;;;;;;;;;;;;;;;8.98;nan;99421.53;4567849;26;19994;-71
2024/04/18 01:58:43;;;;;;;;;;;;;;;8.83;nan;99426.53;4538428;26;19935;-69
2024/04/18 02:00:43;;;;;;;;;;;;;;;9.01;nan;99423.06;4538016;26;19934;-71
2024/04/18 02:02:44;;;;;;;;;;;;;;;8.98;nan;99432.19;4537456;26;20000;-71
2024/04/18 02:04:44;;;;;;;;;;;;;;;8.83;nan;99426.53;4538881;26;19985;-71
2024/04/18 02:06:45;;;;;;;;;;;;;;;8.93;nan;99429.13;4552184;26;19935;-70
2024/04/18 02:08:46;;;;;;;;;;;;;;;8.60;nan;99434.06;4550592;26;19931;-71
2024/04/18 02:10:48;;;;;;;;;;;;;;;8.76;nan;99436.09;4537019;26;19958;-71
2024/04/18 02:12:48;;;;;;;;;;;;;;;8.97;nan;99432.34;4535474;26;19927;-71
2024/04/18 02:14:49;;;;;;;;;;;;;;;8.78;nan;99439.47;4537093;26;19935;-72
2024/04/18 02:16:49;;;;;;;;;;;;;;;8.94;nan;99432.63;4536845;26;19935;-72
2024/04/18 02:18:49;;;;;;;;;;;;;;;8.44;nan;99442.66;4541436;26;19936;-69
2024/04/18 02:20:50;;;;;;;;;;;;;;;8.63;nan;99438.25;4539480;26;19927;-71
2024/04/18 02:22:50;;;;;;;;;;;;;;;8.74;nan;99428.25;4535862;26;19927;-70
2024/04/18 02:25:02;;;;;;;;;;;;;;;8.93;nan;99437.13;4535821;26;19936;-70
2024/04/18 02:27:03;;;;;;;;;;;;;;;8.84;nan;99425.53;4536189;26;20246;-73
2024/04/18 02:29:03;;;;;;;;;;;;;;;9.44;nan;99429.50;4537115;26;19973;-70
2024/04/18 02:31:04;;;;;;;;;;;;;;;9.13;nan;99431.66;4536566;26;19928;-69
2024/04/18 02:33:05;;;;;;;;;;;;;;;9.05;nan;99429.78;4536807;26;19928;-70
2024/04/18 02:35:05;;;;;;;;;;;;;;;9.01;nan;99445.25;4567874;26;19995;-71
2024/04/18 02:37:05;;;;;;;;;;;;;;;8.74;nan;99438.06;4567819;26;19928;-70
2024/04/18 02:39:06;;;;;;;;;;;;;;;8.76;nan;99436.09;4567636;26;20261;-70
2024/04/18 02:41:07;;;;;;;;;;;;;;;8.99;nan;99431.22;4568910;25;19931;-71
2024/04/18 02:43:07;;;;;;;;;;;;;;;9.08;nan;99434.78;4549471;26;19996;-70
2024/04/18 02:45:08;;;;;;;;;;;;;;;9.23;nan;99437.78;4537058;26;20677;-71
2024/04/18 02:47:08;;;;;;;;;;;;;;;9.23;nan;99434.28;4537028;26;19935;-70
2024/04/18 02:49:09;;;;;;;;;;;;;;;9.48;nan;99430.84;4537399;26;19935;-71
2024/04/18 02:51:09;;;;;;;;;;;;;;;9.13;nan;99434.34;4536822;26;19935;-70
2024/04/18 02:53:09;;;;;;;;;;;;;;;8.86;nan;99442.22;4536260;26;19932;-71
2024/04/18 02:55:10;;;;;;;;;;;;;;;9.03;nan;99440.56;4536679;26;19997;-71
2024/04/18 02:57:10;;;;;;;;;;;;;;;9.22;nan;99438.75;4537034;26;19936;-70
2024/04/18 02:59:10;;;;;;;;;;;;;;;8.76;nan;99452.09;4539827;26;19976;-71
2024/04/18 03:01:11;;;;;;;;;;;;;;;8.53;nan;99451.63;4539385;26;19935;-70
2024/04/18 03:03:11;;;;;;;;;;;;;;;8.48;nan;99449.41;4539417;26;19928;-71
2024/04/18 03:05:11;;;;;;;;;;;;;;;8.46;nan;99448.69;4539867;26;20268;-71
2024/04/18 03:07:12;;;;;;;;;;;;;;;8.23;nan;99453.50;4540384;26;19964;-71
2024/04/18 03:09:13;;;;;;;;;;;;;;;8.14;nan;99451.72;4539849;26;19928;-71
2024/04/18 03:11:13;;;;;;;;;;;;;;;7.73;nan;99459.91;4539748;26;19928;-70
2024/04/18 03:13:13;;;;;;;;;;;;;;;8.20;nan;99454.66;4539486;26;19943;-70
2024/04/18 03:15:13;;;;;;;;;;;;;;;8.30;nan;99457.28;4539804;26;20030;-69
2024/04/18 03:17:14;;;;;;;;;;;;;;;8.45;nan;99457.66;4540244;26;19928;-70
2024/04/18 03:19:14;;;;;;;;;;;;;;;8.20;nan;99457.31;4539395;26;19928;-71
2024/04/18 03:21:14;;;;;;;;;;;;;;;7.96;nan;99452.47;4540045;26;19928;-72
2024/04/18 03:23:15;;;;;;;;;;;;;;;8.10;nan;99457.31;4543596;26;20425;-71
2024/04/18 03:25:15;;;;;;;;;;;;;;;8.33;nan;99457.00;4545670;26;19939;-71
2024/04/18 03:27:16;;;;;;;;;;;;;;;8.49;nan;99452.91;4544353;26;19940;-71
2024/04/18 03:29:16;;;;;;;;;;;;;;;8.47;nan;99457.50;4545261;26;19928;-70
2024/04/18 03:31:16;;;;;;;;;;;;;;;8.50;nan;99458.06;4542993;26;20282;-71
2024/04/18 03:33:17;;;;;;;;;;;;;;;8.54;nan;99456.81;4539472;26;19936;-71
2024/04/18 03:35:17;;;;;;;;;;;;;;;8.52;nan;99458.78;4540948;26;19977;-70
2024/04/18 03:37:17;;;;;;;;;;;;;;;8.40;nan;99454.59;4552633;26;19920;-71
2024/04/18 03:39:21;;;;;;;;;;;;;;;8.04;nan;99465.88;4552964;26;19928;-71
2024/04/18 03:41:21;;;;;;;;;;;;;;;8.44;nan;99461.28;4538949;26;19983;-71
2024/04/18 03:43:22;;;;;;;;;;;;;;;8.44;nan;99463.97;4540084;26;20367;-71
2024/04/18 03:45:22;;;;;;;;;;;;;;;8.44;nan;99469.28;4554966;26;19934;-72
2024/04/18 03:47:23;;;;;;;;;;;;;;;8.34;nan;99466.66;4554494;26;19928;-73
2024/04/18 03:49:24;;;;;;;;;;;;;;;8.51;nan;99461.59;4519407;26;19932;-75
2024/04/18 03:51:26;;;;;;;;;;;;;;;8.46;nan;99464.66;4550807;26;19952;-70
2024/04/18 03:53:26;;;;;;;;;;;;;;;8.51;nan;99470.41;4553078;26;19995;-71
2024/04/18 03:55:27;;;;;;;;;;;;;;;8.61;nan;99472.19;4551407;26;19936;-70
2024/04/18 03:57:28;;;;;;;;;;;;;;;8.38;nan;99469.88;4550563;26;19935;-71
2024/04/18 03:59:29;;;;;;;;;;;;;;;8.27;nan;99470.88;4519484;26;19928;-70
2024/04/18 04:01:29;;;;;;;;;;;;;;;8.51;nan;99473.06;4539780;26;19928;-70
2024/04/18 04:03:30;;;;;;;;;;;;;;;8.64;nan;99478.09;4538840;26;19928;-70
2024/04/18 04:05:30;;;;;;;;;;;;;;;8.31;nan;99484.75;4539242;26;19928;-72
2024/04/18 04:07:30;;;;;;;;;;;;;;;8.20;nan;99488.41;4538689;26;19928;-72
2024/04/18 04:09:31;;;;;;;;;;;;;;;8.09;nan;99492.09;4537484;26;19929;-71
2024/04/18 04:11:31;;;;;;;;;;;;;;;8.46;nan;99488.63;4538467;26;19928;-71
2024/04/18 04:13:32;;;;;;;;;;;;;;;8.54;nan;99488.78;4538271;26;19928;-70
2024/04/18 04:15:32;;;;;;;;;;;;;;;8.53;nan;99489.75;4538463;26;20417;-70
2024/04/18 04:17:32;;;;;;;;;;;;;;;8.40;nan;99497.22;4538870;26;20327;-70
2024/04/18 04:19:33;;;;;;;;;;;;;;;8.55;nan;99498.44;4539176;26;19928;-70
2024/04/18 04:21:33;;;;;;;;;;;;;;;8.69;nan;99497.16;4537503;26;20310;-70
2024/04/18 04:23:33;;;;;;;;;;;;;;;8.62;nan;99503.19;4537111;26;19940;-71
2024/04/18 04:25:33;;;;;;;;;;;;;;;8.67;nan;99495.63;4538649;26;20372;-71
2024/04/18 04:27:34;;;;;;;;;;;;;;;8.55;nan;99506.44;4538007;26;20352;-70
2024/04/18 04:29:34;;;;;;;;;;;;;;;8.65;nan;99506.41;4538348;26;20459;-70
2024/04/18 04:31:34;;;;;;;;;;;;;;;8.68;nan;99514.13;4540364;26;19927;-71
2024/04/18 04:33:35;;;;;;;;;;;;;;;8.73;nan;99509.22;4539884;26;20004;-70
2024/04/18 04:35:35;;;;;;;;;;;;;;;8.81;nan;99511.13;4538634;26;19928;-70
2024/04/18 04:37:35;;;;;;;;;;;;;;;8.49;nan;99511.50;4538966;26;19927;-70
2024/04/18 04:39:36;;;;;;;;;;;;;;;8.38;nan;99517.81;4536687;26;20262;-70
2024/04/18 04:41:36;;;;;;;;;;;;;;;8.31;nan;99520.22;4537523;26;20269;-69
2024/04/18 04:43:38;;;;;;;;;;;;;;;7.93;nan;99528.13;4506798;26;19965;-71
2024/04/18 04:45:39;;;;;;;;;;;;;;;8.16;nan;99532.28;4538972;26;19932;-70
2024/04/18 04:47:39;;;;;;;;;;;;;;;8.16;nan;99535.78;4538849;26;19978;-71
2024/04/18 04:49:39;;;;;;;;;;;;;;;8.38;nan;99533.81;4538439;26;19928;-70
2024/04/18 04:51:39;;;;;;;;;;;;;;;8.21;nan;99538.88;4538592;26;19936;-70
2024/04/18 04:53:40;;;;;;;;;;;;;;;8.30;nan;99547.81;4544246;26;19993;-70
2024/04/18 04:55:41;;;;;;;;;;;;;;;8.32;nan;99545.00;4507186;26;20010;-70
2024/04/18 04:57:42;;;;;;;;;;;;;;;8.01;nan;99554.00;4538873;26;19928;-70
2024/04/18 04:59:45;;;;;;;;;;;;;;;7.93;nan;99552.06;4537319;26;20042;-71
2024/04/18 05:01:45;;;;;;;;;;;;;;;7.71;nan;99552.31;4537838;26;19927;-72
2024/04/18 05:03:46;;;;;;;;;;;;;;;7.72;nan;99559.31;4538306;26;20387;-70
2024/04/18 05:05:47;;;;;;;;;;;;;;;7.72;nan;99564.66;4538898;26;19939;-71
2024/04/18 05:07:58;;;;;;;;;;;;;;;7.70;nan;99569.25;4551437;26;19928;-73
2024/04/18 05:09:58;;;;;;;;;;;;;;;7.67;nan;99572.19;4554423;26;19928;-71
2024/04/18 05:12:00;;;;;;;;;;;;;;;7.62;nan;99565.47;4537514;26;20887;-70
2024/04/18 05:14:00;;;;;;;;;;;;;;;7.54;nan;99575.97;4538491;26;19935;-71
2024/04/18 05:16:00;;;;;;;;;;;;;;;7.67;nan;99574.84;4540343;26;19956;-70
2024/04/18 05:18:01;;;;;;;;;;;;;;;7.67;nan;99582.81;4538127;26;19939;-71
2024/04/18 05:20:01;;;;;;;;;;;;;;;7.75;nan;99573.19;4536806;26;19935;-70
2024/04/18 05:22:02;;;;;;;;;;;;;;;7.94;nan;99580.34;4537998;26;19956;-71
2024/04/18 05:24:03;;;;;;;;;;;;;;;7.88;nan;99572.91;4541229;26;19936;-73
2024/04/18 05:26:03;;;;;;;;;;;;;;;7.72;nan;99581.44;4538117;26;19997;-71
2024/04/18 05:28:10;;;;;;;;;;;;;;;7.57;nan;99588.16;4537505;26;19940;-71
2024/04/18 05:32:29;;;;;;;;;;;;;;;7.49;nan;99588.81;4537442;26;20367;-72
2024/04/18 05:34:30;;;;;;;;;;;;;;;7.34;nan;99596.31;4539112;26;19928;-70
2024/04/18 05:36:30;;;;;;;;;;;;;;;7.31;nan;99594.78;4540676;26;19935;-71
2024/04/18 05:38:31;;;;;;;;;;;;;;;7.59;nan;99592.34;4540891;26;19928;-70
2024/04/18 05:40:31;;;;;;;;;;;;;;;7.80;nan;99602.03;4542679;26;19932;-71
2024/04/18 05:42:31;;;;;;;;;;;;;;;7.67;nan;99606.78;4541689;26;19935;-70
2024/04/18 05:44:39;;;;;;;;;;;;;;;7.67;nan;99609.44;4537934;26;19952;-70
2024/04/18 05:46:39;;;;;;;;;;;;;;;7.71;nan;99606.38;4537564;26;19928;-70
2024/04/18 05:48:39;;;;;;;;;;;;;;;7.84;nan;99611.41;4537288;26;19932;-71
2024/04/18 05:50:40;;;;;;;;;;;;;;;7.94;nan;99614.94;4536943;26;19928;-71
2024/04/18 05:52:41;;;;;;;;;;;;;;;7.84;nan;99613.25;4536646;26;20695;-70
2024/04/18 05:54:41;;;;;;;;;;;;;;;7.89;nan;99624.31;4537767;26;19928;-72
2024/04/18 05:56:43;;;;;;;;;;;;;;;7.65;nan;99623.72;4537380;26;19928;-70
2024/04/18 05:58:44;;;;;;;;;;;;;;;7.67;nan;99622.72;4535748;26;20309;-70
2024/04/18 06:00:45;;;;;;;;;;;;;;;7.54;nan;99628.31;4537162;26;19928;-71
2024/04/18 06:02:45;;;;;;;;;;;;;;;7.33;nan;99632.72;4536992;26;20004;-71
2024/04/18 06:04:45;;;;;;;;;;;;;;;7.29;nan;99633.97;4537041;26;19997;-71
2024/04/18 06:06:46;;;;;;;;;;;;;;;7.42;nan;99638.22;4537230;26;19934;-72
2024/04/18 06:08:46;;;;;;;;;;;;;;;7.84;nan;99639.88;4537315;26;19935;-71
2024/04/18 06:10:46;;;;;;;;;;;;;;;7.94;nan;99640.72;4536435;26;20343;-71
2024/04/18 06:12:46;;;;;;;;;;;;;;;7.71;nan;99640.13;4537414;26;20260;-72
2024/04/18 06:14:47;;;;;;;;;;;;;;;7.96;nan;99636.13;4537887;26;19927;-71
2024/04/18 06:16:47;;;;;;;;;;;;;;;8.28;nan;99638.53;4537260;26;19928;-71
2024/04/18 06:18:48;;;;;;;;;;;;;;;8.26;nan;99644.97;4537135;26;19934;-72
2024/04/18 06:20:52;;;;;;;;;;;;;;;8.22;nan;99652.38;4535011;26;19965;-70
2024/04/18 06:22:52;;;;;;;;;;;;;;;8.50;nan;99649.06;4536662;26;19935;-71
2024/04/18 06:24:53;;;;;;;;;;;;;;;8.43;nan;99644.28;4537565;26;19968;-70
2024/04/18 06:26:54;;;;;;;;;;;;;;;8.68;nan;99651.84;4538844;26;19928;-70
2024/04/18 06:28:54;;;;;;;;;;;;;;;8.69;nan;99651.72;4536550;26;19935;-73
2024/04/18 06:30:54;;;;;;;;;;;;;;;8.81;nan;99652.38;4536220;26;19928;-71
2024/04/18 06:32:55;;;;;;;;;;;;;;;8.75;nan;99650.28;4539678;26;19996;-71
2024/04/18 06:34:55;;;;;;;;;;;;;;;8.80;nan;99656.03;4541024;26;19939;-71
2024/04/18 06:36:56;;;;;;;;;;;;;;;8.81;nan;99659.56;4542004;26;19939;-74
2024/04/18 06:38:56;;;;;;;;;;;;;;;8.85;nan;99660.94;4560334;26;19987;-72
2024/04/18 06:40:56;;;;;;;;;;;;;;;8.84;nan;99668.09;4551146;26;19940;-72
2024/04/18 06:42:57;;;;;;;;;;;;;;;8.94;nan;99659.25;4542422;26;20280;-71
2024/04/18 06:44:57;;;;;;;;;;;;;;;9.06;nan;99666.09;4540642;26;20196;-71
2024/04/18 06:46:57;;;;;;;;;;;;;;;8.99;nan;99659.63;4540780;26;19984;-71
2024/04/18 06:48:58;;;;;;;;;;;;;;;9.19;nan;99668.44;4540023;26;19956;-71
2024/04/18 06:50:58;;;;;;;;;;;;;;;9.35;nan;99670.50;4539500;26;19935;-70
2024/04/18 06:52:59;;;;;;;;;;;;;;;9.42;nan;99671.59;4539168;26;20348;-72
2024/04/18 06:55:00;;;;;;;;;;;;;;;8.94;nan;99683.22;4539471;26;19935;-70
2024/04/18 06:57:01;;;;;;;;;;;;;;;8.89;nan;99678.34;4539833;26;20435;-71
2024/04/18 06:59:01;;;;;;;;;;;;;;;9.13;nan;99669.00;4508219;26;19929;-72
2024/04/18 07:01:01;;;;;;;;;;;;;;;8.84;nan;99678.75;4539470;26;19934;-70
2024/04/18 07:03:02;;;;;;;;;;;;;;;8.57;nan;99680.34;4539555;26;19934;-71
2024/04/18 07:05:04;;;;;;;;;;;;;;;8.76;nan;99683.97;4540276;26;19928;-70
2024/04/18 07:07:06;;;;;;;;;;;;;;;8.41;nan;99688.00;4539511;26;19964;-71
2024/04/18 07:09:07;;;;;;;;;;;;;;;8.84;nan;99684.09;4539459;26;19928;-71
2024/04/18 07:11:08;;;;;;;;;;;;;;;9.01;nan;99689.66;4539710;26;19939;-71
2024/04/18 07:13:08;;;;;;;;;;;;;;;9.48;nan;99688.84;4539280;26;20374;-70
2024/04/18 07:15:09;;;;;;;;;;;;;;;9.78;nan;99687.72;4508036;26;20054;-71
2024/04/18 07:17:09;;;;;;;;;;;;;;;10.09;nan;99687.41;4539685;26;19997;-72
2024/04/18 07:19:09;;;;;;;;;;;;;;;10.17;nan;99685.81;4539713;26;19993;-71
2024/04/18 07:21:10;;;;;;;;;;;;;;;10.25;nan;99686.72;4539332;26;19952;-71
2024/04/18 07:23:10;;;;;;;;;;;;;;;10.10;nan;99686.44;4539579;26;19932;-72
2024/04/18 07:25:10;;;;;;;;;;;;;;;10.12;nan;99688.94;4539399;26;19936;-71
2024/04/18 07:27:11;;;;;;;;;;;;;;;10.23;nan;99691.41;4539618;26;20372;-71
2024/04/18 07:29:11;;;;;;;;;;;;;;;10.41;nan;99688.75;4539330;26;19935;-72
2024/04/18 07:31:12;;;;;;;;;;;;;;;10.53;nan;99693.88;4538107;26;19928;-70
2024/04/18 07:33:13;;;;;;;;;;;;;;;10.61;nan;99696.59;4539302;26;19940;-72
2024/04/18 07:35:13;;;;;;;;;;;;;;;10.59;nan;99696.78;4539721;26;19934;-71
2024/04/18 07:37:14;;;;;;;;;;;;;;;10.55;nan;99699.91;4539717;26;20480;-70
2024/04/18 07:39:14;;;;;;;;;;;;;;;10.71;nan;99700.03;4538662;26;19939;-70
2024/04/18 07:41:15;;;;;;;;;;;;;;;10.68;nan;99705.69;4539464;26;19928;-71
2024/04/18 07:43:15;;;;;;;;;;;;;;;10.22;nan;99705.75;4548153;26;19993;-71
2024/04/18 07:45:16;;;;;;;;;;;;;;;10.66;nan;99710.38;4507300;26;19928;-71
2024/04/18 07:47:16;;;;;;;;;;;;;;;11.03;nan;99708.47;4539334;26;19928;-71
2024/04/18 07:49:17;;;;;;;;;;;;;;;10.65;nan;99714.03;4538284;26;19960;-71
2024/04/18 07:51:17;;;;;;;;;;;;;;;10.39;nan;99716.63;4540606;26;20361;-71
2024/04/18 07:53:17;;;;;;;;;;;;;;;10.21;nan;99717.41;4540548;26;19939;-71
2024/04/18 07:55:18;;;;;;;;;;;;;;;10.64;nan;99717.69;4507730;26;20357;-71
2024/04/18 07:57:18;;;;;;;;;;;;;;;10.79;nan;99723.34;4538638;26;19936;-71
2024/04/18 07:59:18;;;;;;;;;;;;;;;10.92;nan;99734.47;4551812;25;20353;-70
2024/04/18 08:01:19;;;;;;;;;;;;;;;10.37;nan;99729.25;4568848;26;19939;-71
2024/04/18 08:03:19;;;;;;;;;;;;;;;10.83;nan;99730.03;4569301;26;19990;-70
2024/04/18 08:05:20;;;;;;;;;;;;;;;11.02;nan;99733.53;4570591;26;20656;-71
2024/04/18 08:07:21;;;;;;;;;;;;;;;11.44;nan;99726.63;4575714;26;19934;-71
2024/04/18 08:09:22;;;;;;;;;;;;;;;11.12;nan;99728.09;4587013;25;19928;-71
2024/04/18 08:11:22;;;;;;;;;;;;;;;11.27;nan;99737.25;4572481;26;19927;-71
2024/04/18 08:13:23;;;;;;;;;;;;;;;11.20;nan;99736.19;4570515;26;20436;-71
2024/04/18 08:15:23;;;;;;;;;;;;;;;11.34;nan;99732.94;4572318;26;19939;-70
2024/04/18 08:17:24;;;;;;;;;;;;;;;11.39;nan;99744.03;4570169;26;19939;-70
2024/04/18 08:19:24;;;;;;;;;;;;;;;11.32;nan;99734.94;4569177;25;20632;-70
2024/04/18 08:21:26;;;;;;;;;;;;;;;11.39;nan;99745.84;4545863;26;20389;-71
2024/04/18 08:23:27;;;;;;;;;;;;;;;11.17;nan;99747.19;4572906;26;19977;-71
2024/04/18 08:25:27;;;;;;;;;;;;;;;11.34;nan;99749.00;4569439;25;20336;-72
2024/04/18 08:27:27;;;;;;;;;;;;;;;11.28;nan;99752.31;4537819;26;20395;-72
2024/04/18 08:29:28;;;;;;;;;;;;;;;11.28;nan;99754.97;4568650;25;19928;-71
2024/04/18 08:31:28;;;;;;;;;;;;;;;11.43;nan;99757.09;4538993;26;19956;-71
2024/04/18 08:33:28;;;;;;;;;;;;;;;11.48;nan;99760.94;4542780;26;19936;-71
2024/04/18 08:35:29;;;;;;;;;;;;;;;11.49;nan;99761.81;4572802;26;19935;-70
2024/04/18 08:37:29;;;;;;;;;;;;;;;11.26;nan;99762.31;4569033;26;19934;-71
2024/04/18 08:39:29;;;;;;;;;;;;;;;11.27;nan;99768.53;4568710;25;19927;-71
2024/04/18 08:41:30;;;;;;;;;;;;;;;11.27;nan;99769.34;4567863;26;20251;-71
2024/04/18 08:43:30;;;;;;;;;;;;;;;11.27;nan;99774.69;4568789;26;19928;-71
2024/04/18 08:45:35;;;;;;;;;;;;;;;11.24;nan;99773.19;4568819;26;19928;-71
2024/04/18 08:47:38;;;;;;;;;;;;;;;10.88;nan;99783.06;4536816;26;19928;-71
2024/04/18 08:49:39;;;;;;;;;;;;;;;10.85;nan;99776.19;4569000;25;19934;-71
2024/04/18 08:51:39;;;;;;;;;;;;;;;10.74;nan;99790.66;4535871;26;19928;-71
2024/04/18 08:53:40;;;;;;;;;;;;;;;10.45;nan;99801.53;4568617;26;19935;-71
2024/04/18 08:55:46;;;;;;;;;;;;;;;10.53;nan;99798.09;4568792;26;19927;-71
2024/04/18 08:57:52;;;;;;;;;;;;;;;10.76;nan;99794.03;4568871;26;19927;-71
2024/04/18 08:59:56;;;;;;;;;;;;;;;10.66;nan;99797.72;4568586;25;19952;-73
2024/04/18 09:01:57;;;;;;;;;;;;;;;10.75;nan;99800.34;4568066;26;19935;-71
2024/04/18 09:03:57;;;;;;;;;;;;;;;10.96;nan;99803.72;4568574;26;19927;-71
2024/04/18 09:05:58;;;;;;;;;;;;;;;10.99;nan;99804.25;4569248;26;19935;-70
2024/04/18 09:07:58;;;;;;;;;;;;;;;11.01;nan;99801.41;4537128;26;19936;-72
2024/04/18 09:10:06;;;;;;;;;;;;;;;11.23;nan;99805.47;4568947;25;19927;-71
2024/04/18 09:12:06;;;;;;;;;;;;;;;10.95;nan;99805.56;4569149;26;19935;-71
2024/04/18 09:14:06;;;;;;;;;;;;;;;11.03;nan;99805.63;4568704;26;19995;-72
2024/04/18 09:16:07;;;;;;;;;;;;;;;11.23;nan;99806.28;4568551;26;19927;-71
2024/04/18 09:18:07;;;;;;;;;;;;;;;11.73;nan;99806.63;4568160;26;19962;-72
2024/04/18 09:20:08;;;;;;;;;;;;;;;11.92;nan;99805.56;4568181;25;19934;-71
2024/04/18 09:22:08;;;;;;;;;;;;;;;12.29;nan;99803.59;4567245;26;19934;-71
2024/04/18 09:24:08;;;;;;;;;;;;;;;12.67;nan;99804.03;4568718;26;20325;-71
2024/04/18 09:26:09;;;;;;;;;;;;;;;13.11;nan;99794.88;4567083;25;19927;-70
2024/04/18 09:28:09;;;;;;;;;;;;;;;13.24;nan;99805.91;4568195;26;19936;-71
2024/04/18 09:30:09;;;;;;;;;;;;;;;12.97;nan;99800.88;4568061;25;19927;-72
2024/04/18 09:32:14;;;;;;;;;;;;;;;12.45;nan;99802.81;4535255;26;20362;-72
2024/04/18 09:34:15;;;;;;;;;;;;;;;12.38;nan;99807.13;4567962;26;20293;-72
2024/04/18 09:36:16;;;;;;;;;;;;;;;12.43;nan;99802.94;4568689;26;19932;-70
2024/04/18 09:38:17;;;;;;;;;;;;;;;11.91;nan;99809.22;4581178;26;19991;-75
2024/04/18 09:40:19;;;;;;;;;;;;;;;12.12;nan;99810.72;4583896;25;19927;-71
2024/04/18 09:42:26;;;;;;;;;;;;;;;12.11;nan;99809.03;4568467;26;19936;-70
2024/04/18 09:44:28;;;;;;;;;;;;;;;12.31;nan;99813.13;4568633;26;19935;-71
2024/04/18 09:46:31;;;;;;;;;;;;;;;12.98;nan;99800.72;4568110;26;19995;-71
2024/04/18 09:48:32;;;;;;;;;;;;;;;13.18;nan;99806.59;4568187;26;19935;-71
2024/04/18 09:50:32;;;;;;;;;;;;;;;12.99;nan;99807.75;4535906;26;19967;-71
2024/04/18 09:52:33;;;;;;;;;;;;;;;13.52;nan;99810.97;4567393;26;19935;-71
2024/04/18 09:54:34;;;;;;;;;;;;;;;13.73;nan;99806.91;4570226;26;19927;-70
2024/04/18 09:56:37;;;;;;;;;;;;;;;13.91;nan;99812.06;4568039;26;19935;-70
2024/04/18 09:58:37;;;;;;;;;;;;;;;13.58;nan;99801.38;4568692;26;19955;-70
2024/04/18 10:00:38;;;;;;;;;;;;;;;13.59;nan;99802.25;4575971;25;19996;-71
2024/04/18 10:02:40;;;;;;;;;;;;;;;13.55;nan;99804.44;4578926;26;19935;-71
2024/04/18 10:04:41;;;;;;;;;;;;;;;13.63;nan;99815.16;4549546;26;19984;-72
2024/04/18 10:06:43;;;;;;;;;;;;;;;12.52;nan;99822.59;4583526;26;19927;-72
2024/04/18 10:08:47;;;;;;;;;;;;;;;12.52;nan;99836.00;4583485;26;19927;-71
2024/04/18 10:10:49;;;;;;;;;;;;;;;12.53;nan;99831.47;4576286;25;19935;-70
2024/04/18 10:12:52;;;;;;;;;;;;;;;11.79;nan;99832.78;4571011;26;19927;-72
2024/04/18 10:14:52;;;;;;;;;;;;;;;11.35;nan;99841.66;4570750;26;19931;-71
2024/04/18 10:16:53;;;;;;;;;;;;;;;11.02;nan;99835.19;4570925;26;20279;-71
2024/04/18 10:18:54;;;;;;;;;;;;;;;10.98;nan;99842.66;4570530;26;19935;-71
2024/04/18 10:20:55;;;;;;;;;;;;;;;11.59;nan;99829.47;4570512;25;19956;-72
2024/04/18 10:22:58;;;;;;;;;;;;;;;11.84;nan;99835.84;4570599;26;19934;-72
2024/04/18 10:24:58;;;;;;;;;;;;;;;11.98;nan;99838.94;4570470;25;19971;-71
2024/04/18 10:27:20;;;;;;;;;;;;;;;12.32;nan;99830.91;4570933;26;19927;-71
2024/04/18 10:29:22;;;;;;;;;;;;;;;12.55;nan;99833.00;4570801;25;20602;-71
2024/04/18 10:31:26;;;;;;;;;;;;;;;12.26;nan;99830.69;4569918;26;20057;-74
2024/04/18 10:33:29;;;;;;;;;;;;;;;12.31;nan;99837.25;4572225;26;19942;-72
2024/04/18 10:35:30;;;;;;;;;;;;;;;11.90;nan;99839.72;4577974;26;19931;-71
2024/04/18 10:37:30;;;;;;;;;;;;;;;12.22;nan;99848.94;4570503;26;19927;-72
2024/04/18 10:39:33;;;;;;;;;;;;;;;12.31;nan;99852.50;4570357;25;20000;-72
2024/04/18 10:41:43;;;;;;;;;;;;;;;12.54;nan;99849.22;4570006;26;19976;-71
2024/04/18 10:43:44;;;;;;;;;;;;;;;11.91;nan;99854.75;4570979;26;20399;-71
2024/04/18 10:45:44;;;;;;;;;;;;;;;12.68;nan;99850.44;4570650;26;19934;-71
2024/04/18 10:47:51;;;;;;;;;;;;;;;12.54;nan;99846.56;4538475;26;20026;-72
2024/04/18 10:49:52;;;;;;;;;;;;;;;12.54;nan;99850.09;4570553;25;19939;-70
2024/04/18 10:51:53;;;;;;;;;;;;;;;12.43;nan;99853.06;4570067;26;20521;-70
2024/04/18 10:53:53;;;;;;;;;;;;;;;12.33;nan;99861.22;4570300;26;19934;-74